Portada
METAR-TAF:

METAR-TAF

Aeropuertos :

Aeropuerto de Almería

Almería, España

latitud: 36-51N, longitud: 002-23W, altitud: 15 m

Observación

El informe se hizo hace 34 minutos, a las 09:30 UTC
Viento 11 kt del este, variando entre este-noreste y sureste
Temperatura 26°C
Humedad 32%
Presión 1016 hPa
Visibilidad 10 km o más
sin nubes por debajo de 1500 m y sin presencia de cumulonimbus.

METAR: LEAM 130930Z 09011KT 060V140 CAVOK 26/08 Q1016

Hora: 12:04 (10:04 UTC)

Pronóstico

El informe se hizo hace 5 horas y 4 minutos, a las 05:00 UTC
Pronóstico válido del 13 a las 06 UTC al 14 a las 06 UTC
Viento 9 kt del sur-suroeste
Visibilidad 10 km o más
sin nubes por debajo de 1500 m y sin presencia de cumulonimbus.
Evolucionando progresivamente
del 14 a las 00 UTC al 14 a las 03 UTC
Viento 10 kt del este-noreste

TAF: LEAM 130500Z 1306/1406 21009KT CAVOK TX25/1310Z TN15/1401Z BECMG 1400/1403 06010KT

Observaciones y pronósticos meteorológicos de más de 4000 aeropuertos (mensajes METAR y TAF).

Los puntos amarillos y rojos representan las estaciones disponibles.

Ponga el ratón en el punto deseado para ver el nombre de la estación.

Haga clic para ver las observaciones y los pronósticos meteorológicos.

Para cambiar el mapa : haga clic en los botones verdes con una cruz de color negro para hacer un zoom, en el botón verde con un guión para alejar o en las flechas verdes para mapas adyacentes.


METAR-TAF: